Time;durP1;ratioP1;P1;durP2;ratioP2;P2;SDS_P1;SDS_P2;PMS_P1;PMS_P2;Temp;Humidity;BMP_temperature;BMP_pressure;BME280_temperature;BME280_humidity;BME280_pressure;Samples;Min_cycle;Max_cycle;Signal;HPM_P1;HPM_P2
2023/01/10 00:01:56;;;;;;;13.05;3.85;;;5.90;99.90;;;;;;5068428;28;20028;-65
2023/01/10 00:04:25;;;;;;;6.18;2.65;;;5.90;99.90;;;;;;5073153;28;20482;-65
2023/01/10 00:06:51;;;;;;;13.48;3.97;;;5.90;99.90;;;;;;5071557;28;20548;-66
2023/01/10 00:09:16;;;;;;;14.32;3.53;;;5.90;99.90;;;;;;5063497;28;20477;-65
2023/01/10 00:14:28;;;;;;;12.13;4.03;;;5.90;99.90;;;;;;5070794;28;20047;-66
2023/01/10 00:16:53;;;;;;;9.63;3.35;;;5.90;99.90;;;;;;5053864;28;20024;-66
2023/01/10 00:19:19;;;;;;;14.10;3.60;;;5.90;99.90;;;;;;5055970;28;20101;-66
2023/01/10 00:21:45;;;;;;;15.70;3.55;;;5.90;99.90;;;;;;5061209;28;20028;-66
2023/01/10 00:24:17;;;;;;;13.25;3.30;;;5.90;99.90;;;;;;5061052;28;20642;-66
2023/01/10 00:26:45;;;;;;;12.82;3.70;;;5.90;99.90;;;;;;5070091;28;20086;-66
2023/01/10 00:29:11;;;;;;;9.75;2.95;;;5.90;99.90;;;;;;5071969;28;20020;-66
2023/01/10 00:31:36;;;;;;;9.18;3.63;;;5.90;99.90;;;;;;5051466;28;20038;-66
2023/01/10 00:34:02;;;;;;;7.10;2.90;;;5.90;99.90;;;;;;5070193;28;20055;-65
2023/01/10 00:36:27;;;;;;;11.23;3.20;;;5.90;99.90;;;;;;5063617;28;20024;-66
2023/01/10 00:38:53;;;;;;;11.15;2.80;;;5.90;99.90;;;;;;5048559;28;20544;-65
2023/01/10 00:44:05;;;;;;;9.50;2.13;;;5.80;99.90;;;;;;5058801;28;20074;-67
2023/01/10 00:46:31;;;;;;;11.13;3.33;;;5.80;99.90;;;;;;5055465;28;20040;-65
2023/01/10 00:48:56;;;;;;;13.65;2.70;;;5.80;99.90;;;;;;5054710;28;20509;-65
2023/01/10 00:51:22;;;;;;;8.57;2.45;;;5.80;99.90;;;;;;5060399;28;20363;-66
2023/01/10 00:53:47;;;;;;;14.77;2.92;;;5.80;99.90;;;;;;5041318;28;20504;-67
2023/01/10 00:56:13;;;;;;;6.20;2.00;;;5.80;99.90;;;;;;5059066;28;20090;-66
2023/01/10 00:58:39;;;;;;;7.35;1.98;;;5.80;99.90;;;;;;5044071;28;20036;-65
2023/01/10 01:01:04;;;;;;;9.15;1.98;;;5.80;99.90;;;;;;5043776;28;20041;-65
2023/01/10 01:03:30;;;;;;;9.38;2.38;;;5.80;99.90;;;;;;5067163;28;20486;-66
2023/01/10 01:05:55;;;;;;;6.55;2.38;;;5.80;99.90;;;;;;5048205;28;20032;-65
2023/01/10 01:08:21;;;;;;;8.48;2.33;;;5.80;99.90;;;;;;5059559;28;20027;-66
2023/01/10 01:10:47;;;;;;;9.60;1.50;;;5.80;99.90;;;;;;5060460;28;20128;-65
2023/01/10 01:13:16;;;;;;;10.40;1.80;;;5.80;99.90;;;;;;5064308;28;20021;-65
2023/01/10 01:15:42;;;;;;;5.15;2.00;;;5.80;99.90;;;;;;5067096;28;20405;-66
2023/01/10 01:18:11;;;;;;;5.70;1.73;;;5.80;99.90;;;;;;5059055;28;20024;-65
2023/01/10 01:20:39;;;;;;;13.63;2.38;;;5.80;99.90;;;;;;5064878;28;20112;-64
2023/01/10 01:23:04;;;;;;;6.90;1.48;;;5.80;99.90;;;;;;5058390;28;20029;-64
2023/01/10 01:25:30;;;;;;;7.03;1.85;;;5.80;99.90;;;;;;5041822;28;20033;-65
2023/01/10 01:27:56;;;;;;;10.20;2.30;;;5.70;99.90;;;;;;5065451;28;20028;-65
2023/01/10 01:30:22;;;;;;;6.22;1.75;;;5.80;99.90;;;;;;5064530;28;20128;-66
2023/01/10 01:32:48;;;;;;;10.95;2.15;;;5.70;99.90;;;;;;5062186;28;20059;-65
2023/01/10 01:35:14;;;;;;;5.38;1.98;;;5.80;99.90;;;;;;5062152;28;20683;-65
2023/01/10 01:37:41;;;;;;;11.27;2.17;;;5.80;99.90;;;;;;5062937;28;20029;-64
2023/01/10 01:40:25;;;;;;;17.35;2.80;;;5.80;99.90;;;;;;5054653;28;20033;-65
2023/01/10 01:42:54;;;;;;;11.10;2.17;;;5.70;99.90;;;;;;5063485;28;20032;-65
2023/01/10 01:45:22;;;;;;;8.52;2.33;;;5.80;99.90;;;;;;5051665;28;20500;-65
2023/01/10 01:48:13;;;;;;;7.13;2.15;;;5.80;99.90;;;;;;5050516;28;20056;-65
2023/01/10 01:51:03;;;;;;;10.63;2.17;;;5.70;99.90;;;;;;5065412;28;20027;-65
2023/01/10 01:53:34;;;;;;;15.63;3.15;;;5.70;99.90;;;;;;5066799;28;20044;-65
2023/01/10 01:56:08;;;;;;;7.13;1.85;;;5.70;99.90;;;;;;5067015;28;20036;-66
2023/01/10 01:58:45;;;;;;;11.18;2.13;;;5.70;99.90;;;;;;5062356;28;20029;-65
2023/01/10 02:01:11;;;;;;;15.27;2.10;;;5.70;99.90;;;;;;5049333;28;20133;-66
2023/01/10 02:03:38;;;;;;;21.45;2.25;;;5.70;99.90;;;;;;5066981;28;20024;-65
2023/01/10 02:06:05;;;;;;;12.57;2.20;;;5.70;99.90;;;;;;5066130;28;20047;-66
2023/01/10 02:08:31;;;;;;;7.18;1.67;;;5.70;99.90;;;;;;5066320;28;20486;-65
2023/01/10 02:11:09;;;;;;;17.17;2.05;;;5.70;99.90;;;;;;5055145;28;20035;-66
2023/01/10 02:13:40;;;;;;;11.80;2.22;;;5.70;99.90;;;;;;5064741;28;20039;-63
2023/01/10 02:16:06;;;;;;;10.05;2.78;;;5.70;99.90;;;;;;5063709;28;20036;-63
2023/01/10 02:18:32;;;;;;;8.60;2.65;;;5.70;99.90;;;;;;5066224;28;20036;-66
2023/01/10 02:21:17;;;;;;;9.98;1.95;;;5.70;99.90;;;;;;5054906;28;20389;-65
2023/01/10 02:24:30;;;;;;;12.18;1.88;;;5.70;99.90;;;;;;5060495;28;20115;-64
2023/01/10 02:27:26;;;;;;;10.35;2.17;;;5.70;99.90;;;;;;5055418;28;20090;-65
2023/01/10 02:30:36;;;;;;;11.30;2.30;;;5.70;99.90;;;;;;5045437;28;20028;-65
2023/01/10 02:33:38;;;;;;;9.35;2.65;;;5.70;99.90;;;;;;5051079;28;20051;-66
2023/01/10 02:36:25;;;;;;;14.45;2.13;;;5.70;99.90;;;;;;5063555;28;20028;-65
2023/01/10 02:39:15;;;;;;;17.25;3.58;;;5.70;99.90;;;;;;5066827;28;20024;-65
2023/01/10 02:42:06;;;;;;;12.50;2.85;;;5.70;99.90;;;;;;5066368;28;20033;-66
2023/01/10 02:45:01;;;;;;;8.02;1.70;;;5.70;99.90;;;;;;5063519;28;20029;-65
2023/01/10 02:47:38;;;;;;;12.40;2.30;;;5.70;99.90;;;;;;5063651;28;20025;-65
2023/01/10 02:50:37;;;;;;;12.43;2.58;;;5.70;99.90;;;;;;5045551;28;20444;-65
2023/01/10 02:53:09;;;;;;;9.25;2.08;;;5.70;99.90;;;;;;5062424;28;20021;-66
2023/01/10 02:56:12;;;;;;;13.30;2.88;;;5.70;99.90;;;;;;5067007;28;20101;-66
2023/01/10 02:58:55;;;;;;;20.73;3.05;;;5.60;99.90;;;;;;5051041;28;20032;-65
2023/01/10 03:01:35;;;;;;;10.00;1.77;;;5.60;99.90;;;;;;5057466;28;20017;-66
2023/01/10 03:04:36;;;;;;;17.67;3.03;;;5.60;99.90;;;;;;5062049;28;20430;-66
2023/01/10 03:07:22;;;;;;;6.28;2.15;;;5.60;99.90;;;;;;5026736;28;20037;-65
2023/01/10 03:09:56;;;;;;;24.98;2.92;;;5.60;99.90;;;;;;5056466;28;20165;-66
2023/01/10 03:12:22;;;;;;;;;;;5.60;99.90;;;;;;5065037;28;20021;-67
2023/01/10 03:14:49;;;;;;;9.13;2.17;;;5.60;99.90;;;;;;5047668;28;20042;-66
2023/01/10 03:17:17;;;;;;;20.60;3.92;;;5.60;99.90;;;;;;5073168;22;20023;-64
2023/01/10 03:19:49;;;;;;;19.33;4.53;;;5.60;99.90;;;;;;5016613;28;20673;-65
2023/01/10 03:22:16;;;;;;;16.75;3.25;;;5.50;99.90;;;;;;5022989;28;20045;-65
2023/01/10 03:24:46;;;;;;;11.88;2.38;;;5.50;99.90;;;;;;5009628;28;20037;-65
2023/01/10 03:27:28;;;;;;;11.23;2.63;;;5.60;99.90;;;;;;5025013;28;20033;-65
2023/01/10 03:30:20;;;;;;;13.82;2.42;;;5.50;99.90;;;;;;5044346;28;20025;-65
2023/01/10 03:32:46;;;;;;;19.42;4.10;;;5.50;99.90;;;;;;5031026;28;20491;-65
2023/01/10 03:35:13;;;;;;;13.20;3.08;;;5.50;99.90;;;;;;5048594;28;20044;-65
2023/01/10 03:38:08;;;;;;;14.52;3.25;;;5.50;99.90;;;;;;5038100;28;20056;-65
2023/01/10 03:40:51;;;;;;;6.47;1.90;;;5.50;99.90;;;;;;5046098;28;20142;-66
2023/01/10 03:46:35;;;;;;;9.57;2.55;;;5.40;99.90;;;;;;5039148;28;20059;-65
2023/01/10 03:49:04;;;;;;;12.70;2.70;;;5.40;99.90;;;;;;5044966;28;20028;-65
2023/01/10 03:51:30;;;;;;;18.00;2.95;;;5.30;99.90;;;;;;5036007;28;20520;-64
2023/01/10 03:53:59;;;;;;;11.50;2.17;;;5.30;99.90;;;;;;5045124;28;20032;-65
2023/01/10 03:56:25;;;;;;;14.50;3.42;;;5.20;99.90;;;;;;5039288;28;20036;-65
2023/01/10 03:58:50;;;;;;;18.92;2.80;;;5.20;99.90;;;;;;5043032;28;20111;-65
2023/01/10 04:01:16;;;;;;;15.52;2.78;;;5.20;99.90;;;;;;5028393;28;20091;-67
2023/01/10 04:03:41;;;;;;;10.70;1.98;;;5.20;99.90;;;;;;5041830;28;20044;-65
2023/01/10 04:06:07;;;;;;;11.00;2.78;;;5.20;99.90;;;;;;5047525;28;20033;-65
2023/01/10 04:08:33;;;;;;;17.73;3.63;;;5.20;99.90;;;;;;5043496;28;20040;-65
2023/01/10 04:10:58;;;;;;;7.85;2.03;;;5.20;99.90;;;;;;5047615;28;20029;-66
2023/01/10 04:13:24;;;;;;;13.50;4.38;;;5.30;99.90;;;;;;5039053;28;20033;-65
2023/01/10 04:15:50;;;;;;;20.05;2.63;;;5.30;99.90;;;;;;5041190;28;20039;-65
2023/01/10 04:18:16;;;;;;;12.38;2.42;;;5.30;99.90;;;;;;5026923;28;20029;-65
2023/01/10 04:20:41;;;;;;;11.55;2.30;;;5.40;99.90;;;;;;5047495;28;20039;-65
2023/01/10 04:23:07;;;;;;;12.75;2.55;;;5.40;99.90;;;;;;5047715;28;20036;-65
2023/01/10 04:25:32;;;;;;;13.13;2.65;;;5.40;99.90;;;;;;5051375;28;20033;-65
2023/01/10 04:27:58;;;;;;;22.48;3.22;;;5.40;99.90;;;;;;5046571;28;20017;-65
2023/01/10 04:30:23;;;;;;;13.43;3.22;;;5.40;99.90;;;;;;5049448;28;20122;-64
2023/01/10 04:32:49;;;;;;;7.10;1.65;;;5.40;99.90;;;;;;5049561;28;20037;-65
2023/01/10 04:35:14;;;;;;;8.90;2.40;;;5.40;99.90;;;;;;5049416;28;20045;-65
2023/01/10 04:37:41;;;;;;;6.95;2.17;;;5.40;99.90;;;;;;5048557;28;20104;-66
2023/01/10 04:40:07;;;;;;;18.30;2.63;;;5.40;99.90;;;;;;5045565;28;20032;-66
2023/01/10 04:42:33;;;;;;;12.23;2.75;;;5.40;99.90;;;;;;5045194;28;20072;-66
2023/01/10 04:44:58;;;;;;;10.40;1.67;;;5.30;99.90;;;;;;5045269;28;20088;-65
2023/01/10 04:47:24;;;;;;;11.07;2.13;;;5.40;99.90;;;;;;5030311;28;20052;-65
2023/01/10 04:49:50;;;;;;;9.98;2.28;;;5.30;99.90;;;;;;5044609;28;20025;-64
2023/01/10 04:52:15;;;;;;;16.17;2.38;;;5.30;99.90;;;;;;5048834;28;20060;-64
2023/01/10 04:54:41;;;;;;;9.40;2.20;;;5.30;99.90;;;;;;5044750;28;20398;-65
2023/01/10 04:57:06;;;;;;;9.85;2.22;;;5.40;99.90;;;;;;5045668;28;20449;-66
2023/01/10 04:59:32;;;;;;;16.52;3.42;;;5.40;99.90;;;;;;5046854;28;20383;-64
2023/01/10 05:01:58;;;;;;;20.25;3.50;;;5.40;99.90;;;;;;5050621;28;20147;-66
2023/01/10 05:04:24;;;;;;;19.27;3.70;;;5.30;99.90;;;;;;5048949;28;20082;-66
2023/01/10 05:06:49;;;;;;;15.25;3.72;;;5.30;99.90;;;;;;5050516;28;20021;-65
2023/01/10 05:09:15;;;;;;;9.25;3.28;;;5.30;99.90;;;;;;5045956;28;20424;-65
2023/01/10 05:11:41;;;;;;;16.92;2.58;;;5.30;99.90;;;;;;5047338;28;20065;-64
2023/01/10 05:14:07;;;;;;;13.65;3.22;;;5.20;99.90;;;;;;5046315;28;20130;-66
2023/01/10 05:16:33;;;;;;;9.90;3.47;;;5.10;99.90;;;;;;5044161;28;20086;-65
2023/01/10 05:18:59;;;;;;;12.30;2.88;;;5.10;99.90;;;;;;5043022;28;20031;-65
2023/01/10 05:21:25;;;;;;;12.07;3.22;;;5.00;99.90;;;;;;5048066;28;20029;-65
2023/01/10 05:23:50;;;;;;;21.08;2.53;;;5.00;99.90;;;;;;5042507;28;20078;-65
2023/01/10 05:26:20;;;;;;;13.73;2.67;;;5.00;99.90;;;;;;5040693;28;20047;-64
2023/01/10 05:28:46;;;;;;;9.20;2.70;;;5.00;99.90;;;;;;5043718;28;20166;-66
2023/01/10 05:31:14;;;;;;;13.63;2.63;;;5.00;99.90;;;;;;5047532;28;20044;-65
2023/01/10 05:33:44;;;;;;;12.48;2.55;;;5.10;99.90;;;;;;5041799;28;20053;-65
2023/01/10 05:36:10;;;;;;;12.10;2.42;;;5.10;99.90;;;;;;5045061;28;20043;-65
2023/01/10 05:38:35;;;;;;;11.13;2.88;;;5.10;99.90;;;;;;5047305;28;20116;-64
2023/01/10 05:41:01;;;;;;;14.30;2.25;;;5.10;99.90;;;;;;5043391;28;20033;-65
2023/01/10 05:43:27;;;;;;;13.05;2.53;;;5.20;99.90;;;;;;5044538;28;20033;-64
2023/01/10 05:45:52;;;;;;;23.58;2.25;;;5.20;99.90;;;;;;5045729;28;20079;-65
2023/01/10 05:48:18;;;;;;;18.92;2.03;;;5.20;99.90;;;;;;5040715;28;20021;-65
2023/01/10 05:50:44;;;;;;;12.38;2.20;;;5.20;99.90;;;;;;5040680;28;20120;-65
2023/01/10 05:53:10;;;;;;;11.45;2.50;;;5.10;99.90;;;;;;5028715;28;20087;-66
2023/01/10 05:55:35;;;;;;;8.00;1.92;;;5.10;99.90;;;;;;5043198;28;20036;-65
2023/01/10 05:58:01;;;;;;;16.13;2.50;;;5.10;99.90;;;;;;5040124;28;20037;-66
2023/01/10 06:00:27;;;;;;;17.05;2.60;;;5.10;99.90;;;;;;5037744;28;20144;-64
2023/01/10 06:02:56;;;;;;;16.85;2.33;;;5.10;99.90;;;;;;5043634;28;20083;-65
2023/01/10 06:05:23;;;;;;;11.98;1.85;;;5.10;99.90;;;;;;5043938;28;20644;-64
2023/01/10 06:07:49;;;;;;;14.70;2.80;;;5.10;99.90;;;;;;5046455;28;20398;-65
2023/01/10 06:10:15;;;;;;;9.95;2.13;;;5.10;99.90;;;;;;5046258;28;20022;-65
2023/01/10 06:12:42;;;;;;;16.38;2.20;;;5.10;99.90;;;;;;5043414;28;20032;-66
2023/01/10 06:15:08;;;;;;;12.77;2.40;;;5.00;99.90;;;;;;5046276;28;20406;-66
2023/01/10 06:17:35;;;;;;;12.77;2.33;;;5.00;99.90;;;;;;5043848;28;20056;-65
2023/01/10 06:20:00;;;;;;;16.42;2.95;;;4.90;99.90;;;;;;5044499;28;20033;-65
2023/01/10 06:22:27;;;;;;;15.80;2.75;;;4.80;99.90;;;;;;5042333;28;20037;-64
2023/01/10 06:24:54;;;;;;;13.85;2.40;;;4.70;99.90;;;;;;5045620;28;20029;-62
2023/01/10 06:27:20;;;;;;;9.32;2.80;;;4.70;99.90;;;;;;5043910;28;20087;-64
2023/01/10 06:29:45;;;;;;;20.17;3.33;;;4.70;99.90;;;;;;5047626;28;20036;-66
2023/01/10 06:32:11;;;;;;;14.43;2.38;;;4.80;99.90;;;;;;5046055;28;20041;-65
2023/01/10 06:34:36;;;;;;;9.18;2.00;;;4.80;99.90;;;;;;5049351;28;20430;-65
2023/01/10 06:37:02;;;;;;;15.43;2.85;;;4.80;99.90;;;;;;5040354;28;20128;-65
2023/01/10 06:39:28;;;;;;;14.60;2.70;;;4.80;99.90;;;;;;5042868;28;20055;-65
2023/01/10 06:41:53;;;;;;;15.20;2.83;;;4.90;99.90;;;;;;5045064;28;20069;-65
2023/01/10 06:44:19;;;;;;;16.05;2.63;;;4.90;99.90;;;;;;5045352;28;20077;-65
2023/01/10 06:46:45;;;;;;;6.05;2.15;;;5.00;99.90;;;;;;5045245;28;20036;-66
2023/01/10 06:49:10;;;;;;;13.57;2.42;;;5.00;99.90;;;;;;5046339;28;20032;-65
2023/01/10 06:51:36;;;;;;;12.27;2.38;;;5.00;99.90;;;;;;5039076;28;20406;-66
2023/01/10 06:54:01;;;;;;;9.77;2.33;;;5.10;99.90;;;;;;5025784;28;20060;-66
2023/01/10 06:56:27;;;;;;;14.43;3.03;;;5.10;99.90;;;;;;5047088;28;20494;-65
2023/01/10 06:58:52;;;;;;;11.20;2.72;;;5.10;99.90;;;;;;5041587;28;20108;-65
2023/01/10 07:01:20;;;;;;;20.27;2.78;;;5.10;99.90;;;;;;5039450;28;20474;-66
2023/01/10 07:03:46;;;;;;;15.60;3.40;;;5.20;99.90;;;;;;5029621;28;20410;-66
2023/01/10 07:06:13;;;;;;;9.35;3.05;;;5.20;99.90;;;;;;5047467;28;20021;-65
2023/01/10 07:08:41;;;;;;;11.93;2.13;;;5.20;99.90;;;;;;5030368;28;20021;-66
2023/01/10 07:11:07;;;;;;;12.60;2.67;;;5.20;99.90;;;;;;5041978;28;20649;-66
2023/01/10 07:13:33;;;;;;;14.57;2.65;;;5.20;99.90;;;;;;5021341;28;20115;-67
2023/01/10 07:16:07;;;;;;;6.90;2.80;;;5.20;99.90;;;;;;5038599;28;20107;-65
2023/01/10 07:18:37;;;;;;;12.15;2.28;;;5.20;99.90;;;;;;5040408;28;20045;-66
2023/01/10 07:21:03;;;;;;;21.38;3.58;;;5.20;99.90;;;;;;5045533;28;20120;-66
2023/01/10 07:23:30;;;;;;;20.90;2.85;;;5.20;99.90;;;;;;5048022;28;20025;-66
2023/01/10 07:25:56;;;;;;;13.98;2.80;;;5.30;99.90;;;;;;5043010;28;20025;-66
2023/01/10 07:28:21;;;;;;;16.80;2.75;;;5.20;99.90;;;;;;5045322;28;20028;-67
2023/01/10 07:30:48;;;;;;;10.90;2.13;;;5.20;99.90;;;;;;5040483;28;20034;-67
2023/01/10 07:33:13;;;;;;;16.02;2.90;;;5.20;99.90;;;;;;5027398;28;20037;-67
2023/01/10 07:35:39;;;;;;;10.15;2.42;;;5.20;99.90;;;;;;5043993;28;20050;-66
2023/01/10 07:38:05;;;;;;;11.55;2.10;;;5.20;99.90;;;;;;5042618;28;20075;-67
2023/01/10 07:40:30;;;;;;;17.77;3.60;;;5.20;99.90;;;;;;5040965;28;20435;-65
2023/01/10 07:42:57;;;;;;;12.95;3.15;;;5.30;99.90;;;;;;5043756;28;20095;-67
2023/01/10 07:45:25;;;;;;;17.52;2.78;;;5.20;99.90;;;;;;5042539;28;20029;-66
2023/01/10 07:47:58;;;;;;;24.48;3.53;;;5.30;99.90;;;;;;5040487;28;20029;-66
2023/01/10 07:50:25;;;;;;;10.70;3.17;;;5.30;99.90;;;;;;5039646;28;20029;-66
2023/01/10 07:52:51;;;;;;;17.88;2.78;;;5.30;99.90;;;;;;5039687;28;20430;-66
2023/01/10 07:55:16;;;;;;;25.20;4.60;;;5.30;99.90;;;;;;5026343;28;20049;-67
2023/01/10 07:57:42;;;;;;;15.80;2.60;;;5.30;99.90;;;;;;5044301;28;20048;-65
2023/01/10 08:00:08;;;;;;;16.20;2.67;;;5.30;99.90;;;;;;5047844;28;20087;-66
2023/01/10 08:02:34;;;;;;;12.05;2.15;;;5.30;99.90;;;;;;5045085;28;20037;-65
2023/01/10 08:04:59;;;;;;;13.93;2.42;;;5.30;99.90;;;;;;5047117;28;20017;-66
2023/01/10 08:07:28;;;;;;;20.67;3.15;;;5.30;99.90;;;;;;5043614;28;20029;-65
2023/01/10 08:09:54;;;;;;;11.73;2.60;;;5.30;99.90;;;;;;5048061;28;20040;-65
2023/01/10 08:12:20;;;;;;;8.95;2.15;;;5.40;99.90;;;;;;5046288;28;20056;-66
2023/01/10 08:14:46;;;;;;;12.02;2.70;;;5.40;99.90;;;;;;5053241;28;20021;-66
2023/01/10 08:17:12;;;;;;;30.92;3.10;;;5.40;99.90;;;;;;5031295;28;20032;-65
2023/01/10 08:19:37;;;;;;;14.07;2.63;;;5.40;99.90;;;;;;5050352;28;20029;-66
2023/01/10 08:22:03;;;;;;;12.93;2.88;;;5.40;99.90;;;;;;5049070;28;20440;-66
2023/01/10 08:24:28;;;;;;;28.38;2.70;;;5.40;99.90;;;;;;5036794;28;20032;-66
2023/01/10 08:26:57;;;;;;;14.18;2.80;;;5.50;99.90;;;;;;5045891;28;20059;-66
2023/01/10 08:29:22;;;;;;;17.92;3.63;;;5.50;99.90;;;;;;5051729;28;20021;-66
2023/01/10 08:31:48;;;;;;;16.73;2.45;;;5.50;99.90;;;;;;5049212;28;20117;-67
2023/01/10 08:34:13;;;;;;;14.82;3.08;;;5.50;99.90;;;;;;5049412;28;20021;-66
2023/01/10 08:36:39;;;;;;;14.82;3.22;;;5.50;99.90;;;;;;5049862;28;20104;-65
2023/01/10 08:39:05;;;;;;;13.60;2.78;;;5.60;99.90;;;;;;5047102;28;20553;-66
2023/01/10 08:41:30;;;;;;;8.23;3.53;;;5.60;99.90;;;;;;5049427;28;20033;-66
2023/01/10 08:43:56;;;;;;;14.07;3.58;;;5.60;99.90;;;;;;5046470;28;20032;-66
2023/01/10 08:46:22;;;;;;;24.85;8.20;;;5.60;99.90;;;;;;5048389;28;20036;-67
2023/01/10 08:48:49;;;;;;;14.00;4.80;;;5.60;99.90;;;;;;5042515;28;20047;-67
2023/01/10 08:51:15;;;;;;;33.33;11.93;;;5.70;99.90;;;;;;5038628;28;20071;-67
2023/01/10 08:53:41;;;;;;;23.73;3.72;;;5.70;99.90;;;;;;5026098;28;20025;-67
2023/01/10 08:56:08;;;;;;;12.77;3.10;;;5.70;99.90;;;;;;5048165;28;20509;-66
2023/01/10 08:58:34;;;;;;;19.83;3.55;;;5.70;99.90;;;;;;5043067;28;20025;-67
2023/01/10 09:01:04;;;;;;;11.57;3.90;;;5.80;99.90;;;;;;5045153;28;20025;-66
2023/01/10 09:03:30;;;;;;;26.38;10.07;;;5.80;99.90;;;;;;5040272;28;20095;-65
2023/01/10 09:05:58;;;;;;;22.55;4.28;;;5.80;99.90;;;;;;5046478;28;20478;-66
2023/01/10 09:08:24;;;;;;;22.52;3.00;;;5.90;99.90;;;;;;5037302;28;20075;-67
2023/01/10 09:10:49;;;;;;;14.38;2.58;;;5.90;99.90;;;;;;5047976;28;20374;-66
2023/01/10 09:13:15;;;;;;;33.42;8.40;;;6.00;99.90;;;;;;5041708;28;20112;-67
2023/01/10 09:15:42;;;;;;;15.60;5.35;;;6.00;99.90;;;;;;5030967;28;20135;-66
2023/01/10 09:18:10;;;;;;;35.88;11.63;;;6.00;99.90;;;;;;5042802;28;20121;-64
2023/01/10 09:20:37;;;;;;;21.38;5.50;;;6.00;99.90;;;;;;5044824;28;20025;-66
2023/01/10 09:23:11;;;;;;;9.52;2.88;;;6.10;99.90;;;;;;5046410;28;20086;-66
2023/01/10 09:25:37;;;;;;;18.08;4.03;;;6.10;99.90;;;;;;5046670;28;20029;-66
2023/01/10 09:28:04;;;;;;;20.45;2.60;;;6.10;99.90;;;;;;5041580;28;20468;-67
2023/01/10 09:30:30;;;;;;;21.40;5.38;;;6.20;99.90;;;;;;5047386;28;20382;-66
2023/01/10 09:32:57;;;;;;;25.90;6.30;;;6.20;99.90;;;;;;5041394;28;20043;-67
2023/01/10 09:35:24;;;;;;;22.83;5.15;;;6.20;99.90;;;;;;5067486;23;20565;-66
2023/01/10 09:37:53;;;;;;;12.80;3.20;;;6.40;99.90;;;;;;5042740;28;20021;-64
2023/01/10 09:40:42;;;;;;;20.63;4.70;;;6.50;99.90;;;;;;5040920;28;20046;-65
2023/01/10 09:43:20;;;;;;;19.75;4.00;;;6.70;99.90;;;;;;5043826;28;20028;-66
2023/01/10 09:46:24;;;;;;;18.08;3.60;;;6.80;99.90;;;;;;5024471;28;20083;-65
2023/01/10 09:49:27;;;;;;;19.37;3.87;;;6.90;99.90;;;;;;5044045;28;20047;-65
2023/01/10 09:51:56;;;;;;;17.58;4.00;;;6.80;99.90;;;;;;5045660;28;20283;-65
2023/01/10 09:54:33;;;;;;;19.88;6.15;;;6.80;99.90;;;;;;5030023;28;20144;-64
2023/01/10 09:57:00;;;;;;;25.52;5.57;;;6.80;99.90;;;;;;5046060;28;20042;-65
2023/01/10 09:59:35;;;;;;;25.60;4.07;;;6.80;99.90;;;;;;5045892;28;20055;-65
2023/01/10 10:02:33;;;;;;;16.35;3.83;;;6.90;99.90;;;;;;5047467;28;20135;-65
2023/01/10 10:05:10;;;;;;;22.55;2.60;;;7.00;99.90;;;;;;5042019;28;20525;-65
2023/01/10 10:07:36;;;;;;;16.38;2.95;;;7.00;99.90;;;;;;5043445;28;20083;-65
2023/01/10 10:10:04;;;;;;;13.32;2.72;;;7.00;99.90;;;;;;5046648;28;20017;-65
2023/01/10 10:12:39;;;;;;;18.58;2.95;;;6.90;99.90;;;;;;5041251;28;20356;-65
2023/01/10 10:15:31;;;;;;;24.27;6.88;;;6.90;99.90;;;;;;5039026;28;20035;-64
2023/01/10 10:18:23;;;;;;;37.33;11.95;;;6.90;99.90;;;;;;5043664;28;20035;-64
2023/01/10 10:21:06;;;;;;;20.92;3.50;;;6.80;99.90;;;;;;5041962;28;20037;-64
2023/01/10 10:23:51;;;;;;;18.58;3.30;;;6.90;99.90;;;;;;5046297;28;20044;-65
2023/01/10 10:26:31;;;;;;;25.15;6.00;;;6.90;99.90;;;;;;5047211;28;20017;-64
2023/01/10 10:29:02;;;;;;;18.50;4.60;;;7.00;99.90;;;;;;5040676;28;20028;-65
2023/01/10 10:31:47;;;;;;;28.40;5.88;;;7.00;99.90;;;;;;5045735;28;20021;-64
2023/01/10 10:34:12;;;;;;;;;;;7.10;99.90;;;;;;5037287;28;20022;-65
2023/01/10 10:36:44;;;;;;;22.75;3.60;;;7.20;99.90;;;;;;5040412;28;19962;-64
2023/01/10 10:39:21;;;;;;;18.27;4.55;;;7.30;99.90;;;;;;5042334;28;20450;-64
2023/01/10 10:41:51;;;;;;;10.43;2.30;;;7.40;99.90;;;;;;5045750;28;20035;-65
2023/01/10 10:44:31;;;;;;;16.40;2.83;;;7.50;99.90;;;;;;5028770;28;20064;-65
2023/01/10 10:46:58;;;;;;;21.38;2.20;;;7.60;99.90;;;;;;5038342;28;20033;-65
2023/01/10 10:49:42;;;;;;;23.05;3.42;;;7.80;99.90;;;;;;5039499;28;20039;-65
2023/01/10 10:52:18;;;;;;;16.10;2.55;;;7.80;99.90;;;;;;5039005;28;20026;-64
2023/01/10 10:54:44;;;;;;;17.17;3.10;;;7.70;99.90;;;;;;5008147;28;20175;-64
2023/01/10 10:57:11;;;;;;;16.42;3.42;;;7.60;99.90;;;;;;5033300;28;20104;-65
2023/01/10 10:59:37;;;;;;;20.67;3.67;;;7.60;99.90;;;;;;5030083;28;20111;-67
2023/01/10 11:02:24;;;;;;;13.25;3.88;;;7.60;99.90;;;;;;5043074;28;20533;-65
2023/01/10 11:04:53;;;;;;;24.10;4.10;;;7.80;99.90;;;;;;5029326;28;20455;-65
2023/01/10 11:07:19;;;;;;;11.95;3.13;;;7.80;99.90;;;;;;5041554;28;20108;-65
2023/01/10 11:12:18;;;;;;;16.08;4.30;;;7.90;99.90;;;;;;5041796;28;20030;-65
2023/01/10 11:14:47;;;;;;;29.83;6.15;;;8.00;99.90;;;;;;5027720;28;20057;-65
2023/01/10 11:17:25;;;;;;;16.95;3.20;;;8.00;99.90;;;;;;5031783;28;20021;-65
2023/01/10 11:20:03;;;;;;;14.13;3.85;;;8.00;99.90;;;;;;5043877;28;20021;-65
2023/01/10 11:22:37;;;;;;;14.30;2.80;;;8.00;99.90;;;;;;5014927;28;20053;-65
2023/01/10 11:25:03;;;;;;;;;;;8.10;99.90;;;;;;5043599;28;20033;-65
2023/01/10 11:27:45;;;;;;;19.77;3.58;;;8.10;99.90;;;;;;5042228;28;20310;-65
2023/01/10 11:30:19;;;;;;;24.90;5.03;;;8.20;99.90;;;;;;5050977;28;20418;-65
2023/01/10 11:32:57;;;;;;;23.80;5.53;;;8.40;99.90;;;;;;5045560;28;20021;-65
2023/01/10 11:35:27;;;;;;;25.52;7.35;;;8.40;99.90;;;;;;5046458;28;20734;-65
2023/01/10 11:38:05;;;;;;;55.40;16.52;;;8.40;99.90;;;;;;5048470;28;20021;-65
2023/01/10 11:40:33;;;;;;;22.33;4.78;;;8.40;99.90;;;;;;5050677;28;20080;-65
2023/01/10 11:43:00;;;;;;;33.28;8.85;;;8.40;99.90;;;;;;5041131;28;20483;-65
2023/01/10 11:45:31;;;;;;;21.15;5.22;;;8.40;99.90;;;;;;5053687;28;20029;-64
2023/01/10 11:48:17;;;;;;;17.50;4.03;;;8.40;99.90;;;;;;5045576;28;20386;-65
2023/01/10 11:50:49;;;;;;;16.42;4.50;;;8.50;99.90;;;;;;5039335;28;20021;-64
2023/01/10 11:53:27;;;;;;;14.00;3.70;;;8.40;99.90;;;;;;5055879;28;20021;-65
2023/01/10 11:55:52;;;;;;;15.40;3.42;;;8.40;99.90;;;;;;5030644;28;20087;-65
2023/01/10 11:58:18;;;;;;;16.33;4.57;;;8.30;99.90;;;;;;5038044;28;20032;-64
2023/01/10 12:00:47;;;;;;;18.15;3.10;;;8.30;99.90;;;;;;5050385;28;20390;-65
2023/01/10 12:03:18;;;;;;;14.82;2.58;;;8.20;99.90;;;;;;5048005;28;20024;-65
2023/01/10 12:06:14;;;;;;;16.65;4.82;;;8.20;99.90;;;;;;5025444;28;20021;-64
2023/01/10 12:08:43;;;;;;;18.05;4.60;;;8.20;99.90;;;;;;5042225;28;20532;-65
2023/01/10 12:11:12;;;;;;;26.70;6.10;;;8.30;99.90;;;;;;5053256;28;20124;-65
2023/01/10 12:13:50;;;;;;;18.63;3.92;;;8.30;99.90;;;;;;5044024;28;20519;-64
2023/01/10 12:16:24;;;;;;;25.40;6.93;;;8.20;99.90;;;;;;5050275;28;20035;-65
2023/01/10 12:18:53;;;;;;;25.10;8.95;;;8.30;99.90;;;;;;5048615;28;20738;-64
2023/01/10 12:21:45;;;;;;;36.58;11.52;;;8.30;99.90;;;;;;5053135;28;20526;-65
2023/01/10 12:24:17;;;;;;;14.85;2.85;;;8.40;99.90;;;;;;5049747;28;20025;-64
2023/01/10 12:26:44;;;;;;;18.45;5.97;;;8.50;99.90;;;;;;5039332;28;20554;-65
2023/01/10 12:29:42;;;;;;;10.25;2.92;;;8.50;99.90;;;;;;5049127;28;20486;-65
2023/01/10 12:32:19;;;;;;;21.25;3.95;;;8.50;99.90;;;;;;5044216;28;20040;-65
2023/01/10 12:34:52;;;;;;;14.18;5.22;;;8.50;99.90;;;;;;5045301;28;20024;-65
2023/01/10 12:37:17;;;;;;;20.08;4.75;;;8.40;99.90;;;;;;5051914;28;20438;-65
2023/01/10 12:39:58;;;;;;;22.17;6.07;;;8.30;99.90;;;;;;5049099;28;20024;-65
2023/01/10 12:45:28;;;;;;;25.77;4.93;;;8.10;99.90;;;;;;5045845;28;20048;-64
2023/01/10 12:48:04;;;;;;;31.98;8.50;;;8.10;99.90;;;;;;5045606;28;20035;-64
2023/01/10 12:50:40;;;;;;;19.52;4.97;;;8.00;99.90;;;;;;5045742;28;20558;-65
2023/01/10 12:53:22;;;;;;;16.88;3.70;;;8.00;99.90;;;;;;5046867;28;20112;-65
2023/01/10 12:55:48;;;;;;;18.00;3.55;;;7.90;99.90;;;;;;5027309;28;20044;-64
2023/01/10 12:58:29;;;;;;;13.85;4.50;;;7.90;99.90;;;;;;5040287;28;20033;-65
2023/01/10 13:00:58;;;;;;;21.52;3.55;;;7.80;99.90;;;;;;5050477;28;20564;-65
2023/01/10 13:03:28;;;;;;;20.42;4.90;;;7.90;99.90;;;;;;5050419;28;20033;-65
2023/01/10 13:05:56;;;;;;;16.35;4.45;;;7.80;99.90;;;;;;5048156;28;20451;-64
2023/01/10 13:08:25;;;;;;;10.43;2.92;;;7.80;99.90;;;;;;5048194;28;22014;-65
2023/01/10 13:10:54;;;;;;;10.55;2.28;;;7.80;99.90;;;;;;5051655;28;20017;-65
2023/01/10 13:13:35;;;;;;;20.42;2.78;;;7.70;99.90;;;;;;5042053;28;20022;-65
2023/01/10 13:16:15;;;;;;;12.80;2.28;;;7.80;99.90;;;;;;5043675;28;20028;-65
2023/01/10 13:19:10;;;;;;;8.40;2.30;;;7.80;99.90;;;;;;5025515;28;20035;-65
2023/01/10 13:21:38;;;;;;;16.70;2.53;;;7.70;99.90;;;;;;5051218;28;20166;-65
2023/01/10 13:24:04;;;;;;;13.02;2.97;;;7.80;99.90;;;;;;5045567;28;20025;-64